createdAt,value
2023-04-13T00:00:47.063Z,13.93
2023-04-13T00:03:17.057Z,13.83
2023-04-13T00:05:46.283Z,13.42
2023-04-13T00:08:14.314Z,13.86
2023-04-13T00:10:42.071Z,13.90
2023-04-13T00:13:10.828Z,13.93
2023-04-13T00:15:41.909Z,13.92
2023-04-13T00:18:10.800Z,14.04
2023-04-13T00:20:39.220Z,14.00
2023-04-13T00:23:06.723Z,14.02
2023-04-13T00:25:34.453Z,14.14
2023-04-13T00:28:03.730Z,14.11
2023-04-13T00:30:31.510Z,14.13
2023-04-13T00:32:59.248Z,13.99
2023-04-13T00:35:28.528Z,14.13
2023-04-13T00:37:55.911Z,14.24
2023-04-13T00:40:24.651Z,14.21
2023-04-13T00:42:53.983Z,14.28
2023-04-13T00:45:21.641Z,14.30
2023-04-13T00:47:50.851Z,14.17
2023-04-13T00:50:20.947Z,14.14
2023-04-13T00:52:49.834Z,14.15
2023-04-13T00:55:21.371Z,14.09
2023-04-13T00:57:53.383Z,14.04
2023-04-13T01:00:22.032Z,14.25
2023-04-13T01:02:52.587Z,14.19
2023-04-13T01:05:21.510Z,14.24
2023-04-13T01:08:19.116Z,14.28
2023-04-13T01:11:11.742Z,14.33
2023-04-13T01:14:01.754Z,14.28
2023-04-13T01:16:37.905Z,14.29
2023-04-13T01:19:06.522Z,14.37
2023-04-13T01:21:35.686Z,14.32
2023-04-13T01:24:21.742Z,14.31
2023-04-13T01:26:49.577Z,14.45
2023-04-13T01:29:17.245Z,14.43
2023-04-13T01:31:46.292Z,14.42
2023-04-13T01:34:14.047Z,14.44
2023-04-13T01:36:41.663Z,14.51
2023-04-13T01:39:10.552Z,14.50
2023-04-13T01:41:38.697Z,14.55
2023-04-13T01:44:07.160Z,14.61
2023-04-13T01:46:35.723Z,14.60
2023-04-13T01:49:04.371Z,14.56
2023-04-13T01:51:34.678Z,14.49
2023-04-13T01:54:13.638Z,14.44
2023-04-13T01:56:43.937Z,14.43
2023-04-13T01:59:11.368Z,14.46
2023-04-13T02:01:41.529Z,14.48
2023-04-13T02:04:10.034Z,14.50
2023-04-13T02:06:37.829Z,14.55
2023-04-13T02:09:08.369Z,14.56
2023-04-13T02:11:36.706Z,14.58
2023-04-13T02:14:04.919Z,14.39
2023-04-13T02:16:33.131Z,14.54
2023-04-13T02:19:01.700Z,14.61
2023-04-13T02:21:29.156Z,14.64
2023-04-13T02:23:57.427Z,14.49
2023-04-13T02:26:26.318Z,14.63
2023-04-13T02:28:53.925Z,14.65
2023-04-13T02:31:23.486Z,14.57
2023-04-13T02:33:51.780Z,14.63
2023-04-13T02:36:20.255Z,14.61
2023-04-13T02:38:48.450Z,14.62
2023-04-13T02:41:22.765Z,14.55
2023-04-13T02:43:51.008Z,14.63
2023-04-13T02:46:19.103Z,14.65
2023-04-13T02:48:47.627Z,14.61
2023-04-13T02:51:15.368Z,14.47
2023-04-13T02:53:43.109Z,14.49
2023-04-13T02:56:10.511Z,14.68
2023-04-13T02:58:38.436Z,14.58
2023-04-13T03:01:06.722Z,14.62
2023-04-13T03:03:34.450Z,14.64
2023-04-13T03:06:02.307Z,14.32
2023-04-13T03:08:30.794Z,14.50
2023-04-13T03:10:59.565Z,14.58
2023-04-13T03:13:27.912Z,14.59
2023-04-13T03:15:56.159Z,14.40
2023-04-13T03:18:25.296Z,14.51
2023-04-13T03:20:53.356Z,14.37
2023-04-13T03:23:21.366Z,13.52
2023-04-13T03:25:49.055Z,13.58
2023-04-13T03:28:19.525Z,13.50
2023-04-13T03:30:47.259Z,13.69
2023-04-13T03:33:14.791Z,14.07
2023-04-13T03:35:42.727Z,13.75
2023-04-13T03:38:10.919Z,14.18
2023-04-13T03:40:38.562Z,14.04
2023-04-13T03:43:06.785Z,14.16
2023-04-13T03:45:34.488Z,13.32
2023-04-13T03:48:02.818Z,13.24
2023-04-13T03:50:31.461Z,13.18
2023-04-13T03:52:59.118Z,12.95
2023-04-13T03:55:27.300Z,13.22
2023-04-13T03:57:55.656Z,12.81
2023-04-13T04:00:24.283Z,12.64
2023-04-13T04:02:53.222Z,13.38
2023-04-13T04:05:21.702Z,12.45
2023-04-13T04:07:49.942Z,11.82
2023-04-13T04:10:17.882Z,13.09
2023-04-13T04:12:45.910Z,12.62
2023-04-13T04:15:13.372Z,12.47
2023-04-13T04:17:41.435Z,12.03
2023-04-13T04:20:10.166Z,12.11
2023-04-13T04:22:37.646Z,11.84
2023-04-13T04:25:06.481Z,11.98
2023-04-13T04:27:38.515Z,12.01
2023-04-13T04:30:10.744Z,12.62
2023-04-13T04:32:38.421Z,13.16
2023-04-13T04:35:07.688Z,13.35
2023-04-13T04:37:37.691Z,12.21
2023-04-13T04:40:10.219Z,12.13
2023-04-13T04:42:38.516Z,12.05
2023-04-13T04:45:07.222Z,12.15
2023-04-13T04:47:43.724Z,12.37
2023-04-13T04:50:14.488Z,12.91
2023-04-13T04:52:43.199Z,12.53
2023-04-13T04:55:11.206Z,13.15
2023-04-13T04:57:39.571Z,13.39
2023-04-13T05:00:15.038Z,11.87
2023-04-13T05:02:43.359Z,13.10
2023-04-13T05:05:11.957Z,13.43
2023-04-13T05:07:39.853Z,12.28
2023-04-13T05:10:09.539Z,13.10
2023-04-13T05:12:37.921Z,13.03
2023-04-13T05:15:06.542Z,12.79
2023-04-13T05:17:36.408Z,13.14
2023-04-13T05:20:06.981Z,13.46
2023-04-13T05:22:35.867Z,13.33
2023-04-13T05:25:04.156Z,13.77
2023-04-13T05:27:31.612Z,13.20
2023-04-13T05:29:59.686Z,13.23
2023-04-13T05:32:27.237Z,14.10
2023-04-13T05:34:54.911Z,14.26
2023-04-13T05:37:23.158Z,14.26
2023-04-13T05:39:51.995Z,14.12
2023-04-13T05:42:20.091Z,14.19
2023-04-13T05:44:48.468Z,14.36
2023-04-13T05:47:21.270Z,14.52
2023-04-13T05:49:49.242Z,14.17
2023-04-13T05:52:19.076Z,13.64
2023-04-13T05:54:46.693Z,14.25
2023-04-13T05:57:14.439Z,14.27
2023-04-13T05:59:42.028Z,14.49
2023-04-13T06:02:09.592Z,14.33
2023-04-13T06:04:38.027Z,14.23
2023-04-13T06:07:05.845Z,14.20
2023-04-13T06:09:34.115Z,13.62
2023-04-13T06:12:02.642Z,13.96
2023-04-13T06:14:30.007Z,13.85
2023-04-13T06:16:57.449Z,13.54
2023-04-13T06:19:28.277Z,13.90
2023-04-13T06:21:57.096Z,14.61
2023-04-13T06:24:24.868Z,14.85
2023-04-13T06:26:53.050Z,14.59
2023-04-13T06:29:20.831Z,14.39
2023-04-13T06:31:49.341Z,14.33
2023-04-13T06:34:17.473Z,14.79
2023-04-13T06:36:45.015Z,14.74
2023-04-13T06:39:13.778Z,14.76
2023-04-13T06:41:41.623Z,13.27
2023-04-13T06:44:10.530Z,14.15
2023-04-13T06:46:39.158Z,14.53
2023-04-13T06:49:07.496Z,14.88
2023-04-13T06:51:35.098Z,14.76
2023-04-13T06:54:02.830Z,15.12
2023-04-13T06:56:30.462Z,14.89
2023-04-13T06:59:02.536Z,14.46
2023-04-13T07:01:31.924Z,13.99
2023-04-13T07:03:59.830Z,14.96
2023-04-13T07:06:27.682Z,15.07
2023-04-13T07:08:55.472Z,15.51
2023-04-13T07:11:26.015Z,15.71
2023-04-13T07:13:53.546Z,15.10
2023-04-13T07:16:21.405Z,15.53
2023-04-13T07:18:48.847Z,15.58
2023-04-13T07:21:16.394Z,15.03
2023-04-13T07:23:45.515Z,15.39
2023-04-13T07:26:15.076Z,16.20
2023-04-13T07:28:42.477Z,16.24
2023-04-13T07:31:11.883Z,15.35
2023-04-13T07:33:39.891Z,15.33
2023-04-13T07:36:09.047Z,15.61
2023-04-13T07:38:38.318Z,16.09
2023-04-13T07:41:07.405Z,15.99
2023-04-13T07:43:35.448Z,15.10
2023-04-13T07:46:11.871Z,15.94
2023-04-13T07:48:39.873Z,16.13
2023-04-13T07:51:17.418Z,14.98
2023-04-13T07:53:45.543Z,15.42
2023-04-13T07:56:14.238Z,15.84
2023-04-13T07:58:41.928Z,15.40
2023-04-13T08:01:09.503Z,15.63
2023-04-13T08:03:37.973Z,16.47
2023-04-13T08:06:07.826Z,15.95
2023-04-13T08:08:35.301Z,16.33
2023-04-13T08:11:03.238Z,15.33
2023-04-13T08:13:33.098Z,16.47
2023-04-13T08:16:00.685Z,16.54
2023-04-13T08:18:28.778Z,16.59
2023-04-13T08:20:56.268Z,16.47
2023-04-13T08:23:24.340Z,16.37
2023-04-13T08:25:52.009Z,15.99
2023-04-13T08:28:19.513Z,16.05
2023-04-13T08:30:47.054Z,16.59
2023-04-13T08:33:15.024Z,16.69
2023-04-13T08:35:42.673Z,16.83
2023-04-13T08:38:10.783Z,16.78
2023-04-13T08:40:40.795Z,17.19
2023-04-13T08:43:09.677Z,17.03
2023-04-13T08:45:41.589Z,16.32
2023-04-13T08:48:11.806Z,16.28
2023-04-13T08:50:39.770Z,16.07
2023-04-13T08:53:08.294Z,17.00
2023-04-13T08:55:43.503Z,17.54
2023-04-13T08:58:12.962Z,17.61
2023-04-13T09:00:42.004Z,17.19
2023-04-13T09:03:14.123Z,17.92
2023-04-13T09:05:43.093Z,17.90
2023-04-13T09:08:13.493Z,18.09
2023-04-13T09:10:42.329Z,17.37
2023-04-13T09:13:10.069Z,17.65
2023-04-13T09:15:37.814Z,17.25
2023-04-13T09:18:07.881Z,16.90
2023-04-13T09:20:37.006Z,16.34
2023-04-13T09:23:17.167Z,15.32
2023-04-13T09:25:45.441Z,15.93
2023-04-13T09:28:19.776Z,16.61
2023-04-13T09:30:47.637Z,17.18
2023-04-13T09:33:15.926Z,15.90
2023-04-13T09:35:43.290Z,16.24
2023-04-13T09:38:15.350Z,16.34
2023-04-13T09:40:49.975Z,16.68
2023-04-13T09:43:17.793Z,17.55
2023-04-13T09:45:45.159Z,17.35
2023-04-13T09:48:21.823Z,16.94
2023-04-13T09:51:05.585Z,16.59
2023-04-13T09:53:43.978Z,16.72
2023-04-13T09:56:11.754Z,17.65
2023-04-13T09:58:44.257Z,17.09
2023-04-13T10:01:15.443Z,16.70
2023-04-13T10:03:43.992Z,16.95
2023-04-13T10:06:11.501Z,17.77
2023-04-13T10:08:39.879Z,16.69
2023-04-13T10:11:14.653Z,16.89
2023-04-13T10:13:51.100Z,17.20
2023-04-13T10:16:28.179Z,17.99
2023-04-13T10:19:05.157Z,17.21
2023-04-13T10:21:35.725Z,16.80
2023-04-13T10:24:11.574Z,16.44
2023-04-13T10:26:41.262Z,16.51
2023-04-13T10:29:10.147Z,16.62
2023-04-13T10:31:39.645Z,16.74
2023-04-13T10:34:08.131Z,16.80
2023-04-13T10:36:43.179Z,16.52
2023-04-13T10:39:11.404Z,16.16
2023-04-13T10:41:38.812Z,17.00
2023-04-13T10:44:07.774Z,17.25
2023-04-13T10:46:36.195Z,17.30
2023-04-13T10:49:04.656Z,17.18
2023-04-13T10:51:39.564Z,17.75
2023-04-13T10:54:09.774Z,17.84
2023-04-13T10:56:37.292Z,17.40
2023-04-13T10:59:04.829Z,17.65
2023-04-13T11:01:33.845Z,17.48
2023-04-13T11:04:08.180Z,18.04
2023-04-13T11:06:39.212Z,18.63
2023-04-13T11:09:07.138Z,18.52
2023-04-13T11:11:36.468Z,18.33
2023-04-13T11:14:04.598Z,18.60
2023-04-13T11:16:32.631Z,18.03
2023-04-13T11:19:04.157Z,18.49
2023-04-13T11:21:31.909Z,18.24
2023-04-13T11:24:02.115Z,18.75
2023-04-13T11:26:34.344Z,18.97
2023-04-13T11:29:03.696Z,19.14
2023-04-13T11:31:42.039Z,19.39
2023-04-13T11:34:11.420Z,20.14
2023-04-13T11:36:39.796Z,19.68
2023-04-13T11:39:10.861Z,18.90
2023-04-13T11:41:43.048Z,19.38
2023-04-13T11:44:13.840Z,18.50
2023-04-13T11:46:41.951Z,18.22
2023-04-13T11:49:09.552Z,18.51
2023-04-13T11:51:37.650Z,18.74
2023-04-13T11:54:06.650Z,18.60
2023-04-13T11:56:34.194Z,18.15
2023-04-13T11:59:02.051Z,18.08
2023-04-13T12:01:34.211Z,17.73
2023-04-13T12:04:16.027Z,18.08
2023-04-13T12:06:46.544Z,17.75
2023-04-13T12:09:17.658Z,17.41
2023-04-13T12:11:54.308Z,17.63
2023-04-13T12:14:52.147Z,17.98
2023-04-13T12:17:38.437Z,18.21
2023-04-13T12:20:15.616Z,18.38
2023-04-13T12:25:21.277Z,18.60
2023-04-13T12:27:53.076Z,19.10
2023-04-13T12:30:22.314Z,19.20
2023-04-13T12:32:54.903Z,19.12
2023-04-13T12:35:22.856Z,18.58
2023-04-13T12:37:50.550Z,18.87
2023-04-13T12:40:18.625Z,19.04
2023-04-13T12:42:47.305Z,19.29
2023-04-13T12:45:16.736Z,18.94
2023-04-13T12:47:44.385Z,19.18
2023-04-13T12:50:12.946Z,19.32
2023-04-13T12:52:42.421Z,20.14
2023-04-13T12:55:10.296Z,20.42
2023-04-13T12:57:39.590Z,20.01
2023-04-13T13:00:10.442Z,19.87
2023-04-13T13:02:38.482Z,19.69
2023-04-13T13:05:09.301Z,20.07
2023-04-13T13:07:36.845Z,19.98
2023-04-13T13:10:14.867Z,20.31
2023-04-13T13:12:49.530Z,20.19
2023-04-13T13:15:17.245Z,20.23
2023-04-13T13:17:44.896Z,20.10
2023-04-13T13:20:13.381Z,19.71
2023-04-13T13:22:42.077Z,20.27
2023-04-13T13:25:09.973Z,20.41
2023-04-13T13:28:05.246Z,20.45
2023-04-13T13:30:26.611Z,20.47
2023-04-13T13:32:54.099Z,20.41
2023-04-13T13:35:21.930Z,20.47
2023-04-13T13:37:49.578Z,20.54
2023-04-13T13:40:17.652Z,20.38
2023-04-13T13:42:51.936Z,20.44
2023-04-13T13:45:21.400Z,20.48
2023-04-13T13:47:54.603Z,20.55
2023-04-13T13:50:22.962Z,20.52
2023-04-13T13:53:03.014Z,20.36
2023-04-13T13:55:32.232Z,20.40
2023-04-13T13:57:59.625Z,20.44
2023-04-13T14:00:27.296Z,20.35
2023-04-13T14:02:55.202Z,20.47
2023-04-13T14:05:22.767Z,20.51
2023-04-13T14:07:50.973Z,20.39
2023-04-13T14:10:18.821Z,20.35
2023-04-13T14:12:49.584Z,20.32
2023-04-13T14:15:18.158Z,20.19
2023-04-13T14:17:55.437Z,19.91
2023-04-13T14:20:29.867Z,19.86
2023-04-13T14:22:57.618Z,19.57
2023-04-13T14:25:25.025Z,19.39
2023-04-13T14:27:52.410Z,19.00
2023-04-13T14:30:22.323Z,18.42
2023-04-13T14:32:51.077Z,19.05
2023-04-13T14:35:18.924Z,18.71
2023-04-13T14:37:47.643Z,18.99
2023-04-13T14:40:17.249Z,18.83
2023-04-13T14:42:45.656Z,18.80
2023-04-13T14:45:13.506Z,18.97
2023-04-13T14:47:41.149Z,18.97
2023-04-13T14:50:09.956Z,18.85
2023-04-13T14:52:37.916Z,18.45
2023-04-13T14:55:05.650Z,18.62
2023-04-13T14:57:33.223Z,18.49
2023-04-13T15:00:01.994Z,18.62
2023-04-13T15:02:29.763Z,18.34
2023-04-13T15:04:58.387Z,18.52
2023-04-13T15:07:29.229Z,18.53
2023-04-13T15:09:58.085Z,18.35
2023-04-13T15:12:25.838Z,18.25
2023-04-13T15:14:53.307Z,17.73
2023-04-13T15:17:21.160Z,17.90
2023-04-13T15:19:48.851Z,18.31
2023-04-13T15:22:16.390Z,17.62
2023-04-13T15:24:43.895Z,18.09
2023-04-13T15:27:11.646Z,18.11
2023-04-13T15:29:39.062Z,18.18
2023-04-13T15:32:06.701Z,17.89
2023-04-13T15:34:34.461Z,18.00
2023-04-13T15:37:01.866Z,18.30
2023-04-13T15:39:29.292Z,17.64
2023-04-13T15:41:57.879Z,17.84
2023-04-13T15:44:25.235Z,17.67
2023-04-13T15:46:52.649Z,16.82
2023-04-13T15:49:20.564Z,17.40
2023-04-13T15:51:48.027Z,17.71
2023-04-13T15:54:15.506Z,17.04
2023-04-13T15:56:44.209Z,17.02
2023-04-13T15:59:11.714Z,16.87
2023-04-13T16:01:49.581Z,17.20
2023-04-13T16:04:17.589Z,17.47
2023-04-13T16:06:45.060Z,17.63
2023-04-13T16:09:12.493Z,17.48
2023-04-13T16:11:40.288Z,17.50
2023-04-13T16:14:08.892Z,17.74
2023-04-13T16:16:46.874Z,17.61
2023-04-13T16:19:18.117Z,17.46
2023-04-13T16:21:47.096Z,17.53
2023-04-13T16:24:14.972Z,17.33
2023-04-13T16:26:42.833Z,17.32
2023-04-13T16:29:10.284Z,17.08
2023-04-13T16:31:38.009Z,16.48
2023-04-13T16:34:22.137Z,17.04
2023-04-13T16:36:53.151Z,16.82
2023-04-13T16:39:21.933Z,16.89
2023-04-13T16:41:49.419Z,17.12
2023-04-13T16:44:17.205Z,16.92
2023-04-13T16:46:44.637Z,16.83
2023-04-13T16:49:12.546Z,16.83
2023-04-13T16:51:40.255Z,17.03
2023-04-13T16:54:07.698Z,16.86
2023-04-13T16:56:35.067Z,16.88
2023-04-13T16:59:03.681Z,16.60
2023-04-13T17:01:31.337Z,16.53
2023-04-13T17:03:58.897Z,16.39
2023-04-13T17:06:27.326Z,16.21
2023-04-13T17:08:54.823Z,16.15
2023-04-13T17:11:23.085Z,16.18
2023-04-13T17:13:51.475Z,16.07
2023-04-13T17:16:19.070Z,16.01
2023-04-13T17:18:46.509Z,16.05
2023-04-13T17:21:14.502Z,16.14
2023-04-13T17:23:43.056Z,15.89
2023-04-13T17:26:10.477Z,15.91
2023-04-13T17:28:38.429Z,16.05
2023-04-13T17:31:07.673Z,16.19
2023-04-13T17:33:35.225Z,16.17
2023-04-13T17:36:02.929Z,16.29
2023-04-13T17:38:30.295Z,16.22
2023-04-13T17:40:57.831Z,16.27
2023-04-13T17:43:25.520Z,15.96
2023-04-13T17:45:53.112Z,16.14
2023-04-13T17:48:20.719Z,16.04
2023-04-13T17:50:49.580Z,16.05
2023-04-13T17:53:17.364Z,15.85
2023-04-13T17:55:44.817Z,15.92
2023-04-13T17:58:12.766Z,15.88
2023-04-13T18:00:40.264Z,15.89
2023-04-13T18:03:09.271Z,15.87
2023-04-13T18:05:41.967Z,15.92
2023-04-13T18:08:09.904Z,16.05
2023-04-13T18:10:37.678Z,16.25
2023-04-13T18:13:05.176Z,16.37
2023-04-13T18:15:32.883Z,16.41
2023-04-13T18:18:00.544Z,16.31
2023-04-13T18:20:28.236Z,16.38
2023-04-13T18:22:56.365Z,16.34
2023-04-13T18:25:24.014Z,16.25
2023-04-13T18:27:51.583Z,16.36
2023-04-13T18:30:19.954Z,16.39
2023-04-13T18:32:51.424Z,16.42
2023-04-13T18:35:19.390Z,16.17
2023-04-13T18:37:46.918Z,16.33
2023-04-13T18:40:14.406Z,16.40
2023-04-13T18:42:42.759Z,16.32
2023-04-13T18:45:10.907Z,16.09
2023-04-13T18:47:39.018Z,15.83
2023-04-13T18:50:07.658Z,15.91
2023-04-13T18:52:35.322Z,15.95
2023-04-13T18:55:03.475Z,15.81
2023-04-13T18:57:31.207Z,16.07
2023-04-13T18:59:58.647Z,16.14
2023-04-13T19:02:26.545Z,16.35
2023-04-13T19:04:54.448Z,16.29
2023-04-13T19:07:22.139Z,16.22
2023-04-13T19:09:52.023Z,16.16
2023-04-13T19:12:19.835Z,16.16
2023-04-13T19:14:47.440Z,15.92
2023-04-13T19:17:16.482Z,16.07
2023-04-13T19:19:44.306Z,16.10
2023-04-13T19:22:12.347Z,16.26
2023-04-13T19:24:40.426Z,16.33
2023-04-13T19:27:08.321Z,16.11
2023-04-13T19:29:36.852Z,16.11
2023-04-13T19:32:04.279Z,16.17
2023-04-13T19:34:32.826Z,16.00
2023-04-13T19:37:00.249Z,15.93
2023-04-13T19:39:27.912Z,15.99
2023-04-13T19:41:55.783Z,15.93
2023-04-13T19:44:23.408Z,16.07
2023-04-13T19:46:50.835Z,16.20
2023-04-13T19:49:18.630Z,16.18
2023-04-13T19:51:46.122Z,16.23
2023-04-13T19:54:13.915Z,16.23
2023-04-13T19:56:42.314Z,16.22
2023-04-13T19:59:09.996Z,16.22
2023-04-13T20:01:37.827Z,16.21
2023-04-13T20:04:06.314Z,16.24
2023-04-13T20:06:34.356Z,16.18
2023-04-13T20:09:08.814Z,16.24
2023-04-13T20:11:36.530Z,16.36
2023-04-13T20:14:04.966Z,16.37
2023-04-13T20:16:32.449Z,16.31
2023-04-13T20:19:00.265Z,15.79
2023-04-13T20:21:31.032Z,15.40
2023-04-13T20:23:59.518Z,15.42
2023-04-13T20:26:29.967Z,14.75
2023-04-13T20:29:01.271Z,15.12
2023-04-13T20:31:32.840Z,15.44
2023-04-13T20:34:03.038Z,15.23
2023-04-13T20:36:31.346Z,15.38
2023-04-13T20:39:01.543Z,15.26
2023-04-13T20:41:34.859Z,15.19
2023-04-13T20:44:03.091Z,15.17
2023-04-13T20:46:37.747Z,15.24
2023-04-13T20:49:05.717Z,14.80
2023-04-13T20:51:33.795Z,14.53
2023-04-13T20:54:02.710Z,14.80
2023-04-13T20:56:30.923Z,14.82
2023-04-13T20:58:58.394Z,14.98
2023-04-13T21:01:25.975Z,14.79
2023-04-13T21:03:53.769Z,14.47
2023-04-13T21:06:22.937Z,14.38
2023-04-13T21:08:52.755Z,14.36
2023-04-13T21:11:21.445Z,14.21
2023-04-13T21:13:48.845Z,14.26
2023-04-13T21:16:16.445Z,14.39
2023-04-13T21:18:44.288Z,14.35
2023-04-13T21:21:11.793Z,14.09
2023-04-13T21:23:54.788Z,14.03
2023-04-13T21:26:22.710Z,14.10
2023-04-13T21:28:50.130Z,13.91
2023-04-13T21:31:17.576Z,13.91
2023-04-13T21:33:45.766Z,12.95
2023-04-13T21:38:44.235Z,13.40
2023-04-13T21:41:19.888Z,13.86
2023-04-13T21:43:47.472Z,14.20
2023-04-13T21:46:15.817Z,13.22
2023-04-13T21:48:43.504Z,13.30
2023-04-13T21:51:11.558Z,13.41
2023-04-13T21:53:39.245Z,13.30
2023-04-13T21:56:06.915Z,12.88
2023-04-13T21:58:42.477Z,13.01
2023-04-13T22:01:11.668Z,12.64
2023-04-13T22:03:41.299Z,12.88
2023-04-13T22:06:10.176Z,13.07
2023-04-13T22:08:38.217Z,12.99
2023-04-13T22:11:06.582Z,12.88
2023-04-13T22:13:34.106Z,13.02
2023-04-13T22:16:01.626Z,13.21
2023-04-13T22:18:29.309Z,13.49
2023-04-13T22:20:58.806Z,13.61
2023-04-13T22:23:26.793Z,13.31
2023-04-13T22:26:01.655Z,13.17
2023-04-13T22:28:30.984Z,13.13
2023-04-13T22:31:06.452Z,13.40
2023-04-13T22:33:36.151Z,13.10
2023-04-13T22:36:04.607Z,13.49
2023-04-13T22:38:32.082Z,13.34
2023-04-13T22:40:59.504Z,13.16
2023-04-13T22:43:27.325Z,13.31
2023-04-13T22:45:58.416Z,13.36
2023-04-13T22:48:27.740Z,13.44
2023-04-13T22:50:55.766Z,13.14
2023-04-13T22:53:23.154Z,12.96
2023-04-13T22:55:50.982Z,12.72
2023-04-13T22:58:18.630Z,12.32
2023-04-13T23:00:46.007Z,12.62
2023-04-13T23:03:13.720Z,12.71
2023-04-13T23:05:41.554Z,12.51
2023-04-13T23:08:08.945Z,12.30
2023-04-13T23:10:36.664Z,12.35
2023-04-13T23:13:04.779Z,12.35
2023-04-13T23:15:32.314Z,12.62
2023-04-13T23:18:02.508Z,12.48
2023-04-13T23:20:30.594Z,11.77
2023-04-13T23:22:58.078Z,12.11
2023-04-13T23:25:25.589Z,12.62
2023-04-13T23:27:53.243Z,12.61
2023-04-13T23:30:20.961Z,12.51
2023-04-13T23:32:48.409Z,12.46
2023-04-13T23:35:16.295Z,12.55
2023-04-13T23:37:45.345Z,12.48
2023-04-13T23:40:12.915Z,12.88
2023-04-13T23:42:40.853Z,12.85
2023-04-13T23:45:08.898Z,12.66
2023-04-13T23:47:36.354Z,12.88
2023-04-13T23:50:04.255Z,12.74
2023-04-13T23:52:31.714Z,12.98
2023-04-13T23:54:59.165Z,13.14
2023-04-13T23:57:26.869Z,12.83
2023-04-13T23:59:57.491Z,12.52
